Brownsville, VT (05037)

11:09 PM EDT on September 18, 2014 (GMT -0400)
Pikes Peak | Change Station
CLOSE
Current Station
Personal Weather Station
Location: Weathersfield, VT
Elevation: 1200 ft
Nearby Weather Stations
Active Advisory: Frost Advisory

Elev 1200 ft 43.40 °N, 72.48 °W | Updated 4 minutes ago

Partly Cloudy
Partly Cloudy
42.4 °F
Feels Like 42 °F
N
0.0
Wind Variable Wind from NNE
Gusts 6.0 mph

Today
High -- | Low -- °F
--% Chance of Precip.
Yesterday
High -- | Low -- °F
Precip. -- in
6:32 AM 6:54 PM
Waning Crescent, 22% visible
Pressure 30.19 in
Visibility 10.0 miles
Clouds Few 4800 ft
Windchill 42 °F
Dew Point 38 °F
Humidity 84%
Rainfall 0.00 in
Snow Depth Not available.
UV 0 out of 12
Pollen 2.20 out of 12
Ozone Good
PM2.5 Good
Flu Activity Not available.
METAR KVSF 190254Z AUTO 35003KT 10SM FEW048 06/04 A3018 RMK AO2 SLP224 T00610044 51021

More Conditions Fewer Conditions

Pressure 30.19 in
Visibility 10.0 miles
Clouds Few 4800 ft
Windchill 42 °F
Dew Point 38 °F
Humidity 84%
Rainfall 0.00 in
Snow Depth Not available.
UV 0 out of 12
Pollen 2.20 out of 12
Ozone Good
PM2.5 Good
Flu Activity Not available.
METAR KVSF 190254Z AUTO 35003KT 10SM FEW048 06/04 A3018 RMK AO2 SLP224 T00610044 51021

More Conditions Fewer Conditions

10-Day Weather Forecast

Almanac

Astronomy

Sep. 18, 2014 Rise Set
Actual Time 6:32 AM EDT 6:54 PM EDT
Civil Twilight 6:03 AM EDT 7:23 PM EDT
Nautical Twilight 5:30 AM EDT 7:56 PM EDT
Astronomical Twilight 4:55 AM EDT 8:31 PM EDT
Moon 1:15 AM EDT (9/18) 3:50 PM EDT (9/18)
Length of Visible Light 13h 19m
Length of Day
12h 22m
Tomorrow will be 2m 57s shorter.
Waning Crescent, 22% of the Moon is Illuminated
Today
Waning Crescent
Sep 24
New
Oct 1
First Quarter
Oct 8
Full
Oct 15
Last Quarter

Today's Extremes

State Highs State Lows

Community

WunderPhotos

Upload Photos

1,754,550 photos uploaded!

Nearby

Air Quality

  Air Quality AQ Index Pollutant
Yesterday Good
OZONE
Current Good
OZONE
Current Good
PM2.5
Thursday Good
PM2.5
Thursday Good
OZONE
Friday Good
PM2.5
Friday Good
OZONE

Snow Depth

Station Depth Elevation
No new snow has been reported.

Earthquake Activity

City Distance Mag. Time & Date
No recent earthquake activity has been reported nearby.
Minimum magnitude displayed is 2.5.

Coastal Water Temperatures

Place Temperature
No Stations Reporting

Nearby Weather Stations